Ovit — 9HA2899 — position and weather

sailwx.info

Track history (hours):
 
Tides and Currents Weather Stations Pressure Air Temp Water Temp Dewpoint Dewpoint Depression Visibility Wind Speed Wind Dir Waves Ship Positions

Ovit

Last reported at 2017-Oct-17 22:30 UTC. Time now 2017-Oct-17 22:36 UTC.
Position N 36°07' W 005°22'.

Length 116 m; draft 5.8 m.

Type: Ship. MMSI: 256661000.

Date/timePositionNaut miles runAvg speedWind from/ knotsBaromVisibWave heightAir tempDewpointWater temp
2017-Oct-17 22:30N 36°07' W 005°22'0 0.3
2017-Oct-17 21:52N 36°07' W 005°22'0 0.2
2017-Oct-17 21:28N 36°07' W 005°22'0 0.0
2017-Oct-17 20:55N 36°07' W 005°22'0 0.1
2017-Oct-17 20:28N 36°07' W 005°22'0 0.1
2017-Oct-17 16:55N 36°07' W 005°22'0 0.0
2017-Oct-17 16:25N 36°07' W 005°22'0 0.0
2017-Oct-17 15:58N 36°07' W 005°22'0 0.0
2017-Oct-17 15:19N 36°07' W 005°22'0 0.0
2017-Oct-17 14:19N 36°07' W 005°22'0 0.0
2017-Oct-17 13:49N 36°07' W 005°22'0 0.1
2017-Oct-17 13:10N 36°07' W 005°22'0 0.0
2017-Oct-17 12:49N 36°07' W 005°22'0 0.0
2017-Oct-17 12:21N 36°07' W 005°22'2 0.3
2017-Oct-17 05:41N 36°09' W 005°23'0 0.6
2017-Oct-17 05:25N 36°09' W 005°23'0 0.0
2017-Oct-17 04:58N 36°09' W 005°23'0 0.1
2017-Oct-17 02:49N 36°09' W 005°23'0 0.1
2017-Oct-17 02:25N 36°09' W 005°23'0 0.1
2017-Oct-17 01:58N 36°09' W 005°23'0 0.0
2017-Oct-17 01:28N 36°09' W 005°23'0 0.1
2017-Oct-17 00:58N 36°09' W 005°23'0 0.0
2017-Oct-16 21:23N 36°09' W 005°23'0 0.2
2017-Oct-16 21:00N 36°09' W 005°23'0 0.1
2017-Oct-16 17:42N 36°09' W 005°23'1 4.6
2017-Oct-16 17:29N 36°08' W 005°22'2 2.3
2017-Oct-16 16:37N 36°06' W 005°22'0 0.2
2017-Oct-16 16:25N 36°06' W 005°22'0 0.1
2017-Oct-16 15:55N 36°06' W 005°22'0 0.1
2017-Oct-16 15:22N 36°06' W 005°22'0 0.0
2017-Oct-16 14:58N 36°06' W 005°22'0 0.0
2017-Oct-16 13:58N 36°06' W 005°22'0 0.1
2017-Oct-16 13:28N 36°06' W 005°22'0 0.1
2017-Oct-16 12:58N 36°06' W 005°22'0 0.2
2017-Oct-16 12:25N 36°06' W 005°22'0 0.0
2017-Oct-16 10:40N 36°06' W 005°22'0 0.0
2017-Oct-16 10:20N 36°06' W 005°22'3 0.6
2017-Oct-16 05:19N 36°09' W 005°23'0 0.1
2017-Oct-16 04:43N 36°09' W 005°23'0 0.0
2017-Oct-16 04:25N 36°09' W 005°23'0 0.0
2017-Oct-16 03:52N 36°09' W 005°23'0 0.0
2017-Oct-16 03:25N 36°09' W 005°23'0 0.0
2017-Oct-16 02:49N 36°09' W 005°23'0 0.0
2017-Oct-16 02:28N 36°09' W 005°23'0 0.0
2017-Oct-16 01:55N 36°09' W 005°23'0 0.2
2017-Oct-16 01:30N 36°09' W 005°23'0 0.3
2017-Oct-16 01:00N 36°09' W 005°23'2 3.1
2017-Oct-16 00:28N 36°08' W 005°22'0 0.0
2017-Oct-15 23:58N 36°08' W 005°22'0 0.0
2017-Oct-15 23:28N 36°08' W 005°22'0 0.0
2017-Oct-15 22:58N 36°08' W 005°22'0 0.1
2017-Oct-15 22:28N 36°08' W 005°22'0 0.0
2017-Oct-15 21:58N 36°08' W 005°22'0 0.0
2017-Oct-15 21:26N 36°08' W 005°22'0 0.1
2017-Oct-15 20:59N 36°08' W 005°22'0 0.3
2017-Oct-15 20:26N 36°08' W 005°22'0 0.1
2017-Oct-15 19:31N 36°08' W 005°22'0 0.1
2017-Oct-15 19:28N 36°08' W 005°22'0 0.0
2017-Oct-15 18:56N 36°08' W 005°22'1 0.2
2017-Oct-15 14:00N 36°09' W 005°22'0 0.0
2017-Oct-15 08:23N 36°09' W 005°22'0 0.8
2017-Oct-15 08:01N 36°09' W 005°22'1 0.2
2017-Oct-15 04:23N 36°08' W 005°22'0 0.1
2017-Oct-15 03:56N 36°08' W 005°22'0 0.0
2017-Oct-15 03:29N 36°08' W 005°22'0 0.1
2017-Oct-15 02:59N 36°08' W 005°22'0 0.0
2017-Oct-15 01:23N 36°08' W 005°22'0 1.3
2017-Oct-15 01:00N 36°08' W 005°23'2 0.2
2017-Oct-14 13:42N 36°08' W 005°26'0 0.0
2017-Oct-14 13:29N 36°08' W 005°26'4 1.2
2017-Oct-14 10:29N 36°07' W 005°22'0 0.0
2017-Oct-14 09:59N 36°07' W 005°22'0 0.1
2017-Oct-14 09:29N 36°07' W 005°22'0 0.0
2017-Oct-14 08:59N 36°07' W 005°22'0 0.0
2017-Oct-14 07:38N 36°07' W 005°22'0 0.2
2017-Oct-14 06:42N 36°07' W 005°21'0 1.7
2017-Oct-14 06:30N 36°08' W 005°22'1 0.8
2017-Oct-14 04:54N 36°09' W 005°22'0 0.2
2017-Oct-14 04:30N 36°09' W 005°22'0 0.2
2017-Oct-14 04:00N 36°09' W 005°22'0 0.1
2017-Oct-14 03:30N 36°09' W 005°22'0 0.0
2017-Oct-14 03:00N 36°09' W 005°22'0 0.0
2017-Oct-14 02:30N 36°09' W 005°22'0 0.0
2017-Oct-14 02:00N 36°09' W 005°22'0 0.1
2017-Oct-14 01:30N 36°09' W 005°22'0 0.1
2017-Oct-14 01:00N 36°09' W 005°22'0 0.0
2017-Oct-14 00:30N 36°09' W 005°22'0 0.0
2017-Oct-13 23:57N 36°09' W 005°22'0 0.0
2017-Oct-13 23:24N 36°09' W 005°22'0 0.1
2017-Oct-13 22:57N 36°09' W 005°22'0 0.0
2017-Oct-13 22:30N 36°09' W 005°22'0 0.0
2017-Oct-13 21:48N 36°09' W 005°22'0 0.0
2017-Oct-13 21:30N 36°09' W 005°22'0 0.0
2017-Oct-13 21:00N 36°09' W 005°22'0 0.3
2017-Oct-13 20:25N 36°09' W 005°22'2 3.5
2017-Oct-13 19:51N 36°07' W 005°22'0 0.0
2017-Oct-13 19:27N 36°07' W 005°22'0 0.0
2017-Oct-13 18:51N 36°07' W 005°22'0 0.0
2017-Oct-13 18:24N 36°07' W 005°22'0 0.0
2017-Oct-13 12:21N 36°07' W 005°22'0 0.0
2017-Oct-13 11:57N 36°07' W 005°22'0 0.0
2017-Oct-13 11:21N 36°07' W 005°22'0 0.1
2017-Oct-13 10:56N 36°07' W 005°22'0 0.0
2017-Oct-13 10:07N 36°07' W 005°22'0 0.1
2017-Oct-13 10:00N 36°07' W 005°22'2 0.5
2017-Oct-13 05:30N 36°09' W 005°23'0 0.0
2017-Oct-13 04:57N 36°09' W 005°23'0 0.1
2017-Oct-13 04:27N 36°09' W 005°23'0 0.1
2017-Oct-13 03:09N 36°09' W 005°23'0 0.1
2017-Oct-13 02:42N 36°09' W 005°23'0 0.0
2017-Oct-13 02:30N 36°09' W 005°23'0 0.2
2017-Oct-13 02:00N 36°09' W 005°23'0 0.1
2017-Oct-13 01:18N 36°09' W 005°23'0 0.1
2017-Oct-13 00:54N 36°09' W 005°23'0 0.1
2017-Oct-13 00:30N 36°09' W 005°23'1 2.2
2017-Oct-13 00:00N 36°08' W 005°22'1 1.9
2017-Oct-12 23:29N 36°07' W 005°22'0 0.1
2017-Oct-12 22:56N 36°07' W 005°22'0 0.1
2017-Oct-12 22:29N 36°07' W 005°22'0 0.1
2017-Oct-12 21:59N 36°07' W 005°22'0 0.1
2017-Oct-12 21:29N 36°07' W 005°22'0 0.0
2017-Oct-12 20:59N 36°07' W 005°22'0 0.1
2017-Oct-12 20:29N 36°07' W 005°22'0 0.1
2017-Oct-12 19:59N 36°07' W 005°22'0 0.0
2017-Oct-12 19:29N 36°07' W 005°22'0 0.1
2017-Oct-12 18:59N 36°07' W 005°22'0 0.0
2017-Oct-12 18:29N 36°07' W 005°22'0 0.1
2017-Oct-12 17:56N 36°07' W 005°22'0 0.2
2017-Oct-12 17:29N 36°07' W 005°22'0 0.2
2017-Oct-12 16:59N 36°07' W 005°22'0 0.1
2017-Oct-12 15:44N 36°07' W 005°22'0 0.1
2017-Oct-12 15:29N 36°07' W 005°22'0 0.1
2017-Oct-12 14:47N 36°07' W 005°22'0 0.1
2017-Oct-12 14:30N 36°07' W 005°22'0 0.6
2017-Oct-12 14:00N 36°07' W 005°22'2 4.2
2017-Oct-12 13:30N 36°09' W 005°23'0 0.6
2017-Oct-12 13:00N 36°09' W 005°23'1 1.7
2017-Oct-12 12:25N 36°09' W 005°22'0 0.0
2017-Oct-12 11:55N 36°09' W 005°22'0 0.0
2017-Oct-12 10:52N 36°09' W 005°22'0 0.0
2017-Oct-12 10:19N 36°09' W 005°22'0 0.0
2017-Oct-12 09:58N 36°09' W 005°22'0 0.0
2017-Oct-12 09:13N 36°09' W 005°22'0 0.0
2017-Oct-12 08:40N 36°09' W 005°22'1 0.2
2017-Oct-12 05:42N 36°08' W 005°23'0 0.4
2017-Oct-12 05:06N 36°08' W 005°23'0 0.0
2017-Oct-12 04:39N 36°08' W 005°23'0 0.6
2017-Oct-12 04:30N 36°08' W 005°23'0 0.3
2017-Oct-12 04:00N 36°08' W 005°23'0 0.1
2017-Oct-12 03:30N 36°08' W 005°23'0 0.1
2017-Oct-12 02:57N 36°08' W 005°23'0 0.1
2017-Oct-12 02:06N 36°08' W 005°23'0 0.0
2017-Oct-12 02:00N 36°08' W 005°23'0 0.0
2017-Oct-12 01:30N 36°08' W 005°23'0 0.1
2017-Oct-12 00:54N 36°08' W 005°23'0 0.0
2017-Oct-12 00:00N 36°08' W 005°23'0 0.1
2017-Oct-11 23:21N 36°08' W 005°23'0 0.1
2017-Oct-11 23:00N 36°08' W 005°23'0 0.1
2017-Oct-11 22:30N 36°08' W 005°23'0 0.2
2017-Oct-11 22:00N 36°08' W 005°23'0 0.0
2017-Oct-11 21:12N 36°08' W 005°23'0 0.1
2017-Oct-11 20:54N 36°08' W 005°23'0 0.2
2017-Oct-11 20:30N 36°08' W 005°23'0 0.1
2017-Oct-11 20:00N 36°08' W 005°23'0 0.1
2017-Oct-11 19:30N 36°08' W 005°23'2 0.8
2017-Oct-11 17:26N 36°06' W 005°22'4 0.1
2017-Oct-10 09:59N 36°08' W 005°26'2 3.2
2017-Oct-10 09:17N 36°09' W 005°23'  
Track history (hours):
 
Tides and Currents Weather Stations Pressure Air Temp Water Temp Dewpoint Dewpoint Depression Visibility Wind Speed Wind Dir Waves Ship Positions

Ovit

Last reported at 2017-Oct-17 22:30 UTC. Time now 2017-Oct-17 22:36 UTC.
Position N 36°07' W 005°22'.

Length 116 m; draft 5.8 m.

Type: Ship. MMSI: 256661000.

Date/timePositionNaut miles runAvg speedWind from/ knotsBaromVisibWave heightAir tempDewpointWater temp
2017-Oct-17 22:30N 36°07' W 005°22'0 0.3
2017-Oct-17 21:52N 36°07' W 005°22'0 0.2
2017-Oct-17 21:28N 36°07' W 005°22'0 0.0
2017-Oct-17 20:55N 36°07' W 005°22'0 0.1
2017-Oct-17 20:28N 36°07' W 005°22'0 0.1
2017-Oct-17 16:55N 36°07' W 005°22'0 0.0
2017-Oct-17 16:25N 36°07' W 005°22'0 0.0
2017-Oct-17 15:58N 36°07' W 005°22'0 0.0
2017-Oct-17 15:19N 36°07' W 005°22'0 0.0
2017-Oct-17 14:19N 36°07' W 005°22'0 0.0
2017-Oct-17 13:49N 36°07' W 005°22'0 0.1
2017-Oct-17 13:10N 36°07' W 005°22'0 0.0
2017-Oct-17 12:49N 36°07' W 005°22'0 0.0
2017-Oct-17 12:21N 36°07' W 005°22'2 0.3
2017-Oct-17 05:41N 36°09' W 005°23'0 0.6
2017-Oct-17 05:25N 36°09' W 005°23'0 0.0
2017-Oct-17 04:58N 36°09' W 005°23'0 0.1
2017-Oct-17 02:49N 36°09' W 005°23'0 0.1
2017-Oct-17 02:25N 36°09' W 005°23'0 0.1
2017-Oct-17 01:58N 36°09' W 005°23'0 0.0
2017-Oct-17 01:28N 36°09' W 005°23'0 0.1
2017-Oct-17 00:58N 36°09' W 005°23'0 0.0
2017-Oct-16 21:23N 36°09' W 005°23'0 0.2
2017-Oct-16 21:00N 36°09' W 005°23'0 0.1
2017-Oct-16 17:42N 36°09' W 005°23'1 4.6
2017-Oct-16 17:29N 36°08' W 005°22'2 2.3
2017-Oct-16 16:37N 36°06' W 005°22'0 0.2
2017-Oct-16 16:25N 36°06' W 005°22'0 0.1
2017-Oct-16 15:55N 36°06' W 005°22'0 0.1
2017-Oct-16 15:22N 36°06' W 005°22'0 0.0
2017-Oct-16 14:58N 36°06' W 005°22'0 0.0
2017-Oct-16 13:58N 36°06' W 005°22'0 0.1
2017-Oct-16 13:28N 36°06' W 005°22'0 0.1
2017-Oct-16 12:58N 36°06' W 005°22'0 0.2
2017-Oct-16 12:25N 36°06' W 005°22'0 0.0
2017-Oct-16 10:40N 36°06' W 005°22'0 0.0
2017-Oct-16 10:20N 36°06' W 005°22'3 0.6
2017-Oct-16 05:19N 36°09' W 005°23'0 0.1
2017-Oct-16 04:43N 36°09' W 005°23'0 0.0
2017-Oct-16 04:25N 36°09' W 005°23'0 0.0
2017-Oct-16 03:52N 36°09' W 005°23'0 0.0
2017-Oct-16 03:25N 36°09' W 005°23'0 0.0
2017-Oct-16 02:49N 36°09' W 005°23'0 0.0
2017-Oct-16 02:28N 36°09' W 005°23'0 0.0
2017-Oct-16 01:55N 36°09' W 005°23'0 0.2
2017-Oct-16 01:30N 36°09' W 005°23'0 0.3
2017-Oct-16 01:00N 36°09' W 005°23'2 3.1
2017-Oct-16 00:28N 36°08' W 005°22'0 0.0
2017-Oct-15 23:58N 36°08' W 005°22'0 0.0
2017-Oct-15 23:28N 36°08' W 005°22'0 0.0
2017-Oct-15 22:58N 36°08' W 005°22'0 0.1
2017-Oct-15 22:28N 36°08' W 005°22'0 0.0
2017-Oct-15 21:58N 36°08' W 005°22'0 0.0
2017-Oct-15 21:26N 36°08' W 005°22'0 0.1
2017-Oct-15 20:59N 36°08' W 005°22'0 0.3
2017-Oct-15 20:26N 36°08' W 005°22'0 0.1
2017-Oct-15 19:31N 36°08' W 005°22'0 0.1
2017-Oct-15 19:28N 36°08' W 005°22'0 0.0
2017-Oct-15 18:56N 36°08' W 005°22'1 0.2
2017-Oct-15 14:00N 36°09' W 005°22'0 0.0
2017-Oct-15 08:23N 36°09' W 005°22'0 0.8
2017-Oct-15 08:01N 36°09' W 005°22'1 0.2
2017-Oct-15 04:23N 36°08' W 005°22'0 0.1
2017-Oct-15 03:56N 36°08' W 005°22'0 0.0
2017-Oct-15 03:29N 36°08' W 005°22'0 0.1
2017-Oct-15 02:59N 36°08' W 005°22'0 0.0
2017-Oct-15 01:23N 36°08' W 005°22'0 1.3
2017-Oct-15 01:00N 36°08' W 005°23'2 0.2
2017-Oct-14 13:42N 36°08' W 005°26'0 0.0
2017-Oct-14 13:29N 36°08' W 005°26'4 1.2
2017-Oct-14 10:29N 36°07' W 005°22'0 0.0
2017-Oct-14 09:59N 36°07' W 005°22'0 0.1
2017-Oct-14 09:29N 36°07' W 005°22'0 0.0
2017-Oct-14 08:59N 36°07' W 005°22'0 0.0
2017-Oct-14 07:38N 36°07' W 005°22'0 0.2
2017-Oct-14 06:42N 36°07' W 005°21'0 1.7
2017-Oct-14 06:30N 36°08' W 005°22'1 0.8
2017-Oct-14 04:54N 36°09' W 005°22'0 0.2
2017-Oct-14 04:30N 36°09' W 005°22'0 0.2
2017-Oct-14 04:00N 36°09' W 005°22'0 0.1
2017-Oct-14 03:30N 36°09' W 005°22'0 0.0
2017-Oct-14 03:00N 36°09' W 005°22'0 0.0
2017-Oct-14 02:30N 36°09' W 005°22'0 0.0
2017-Oct-14 02:00N 36°09' W 005°22'0 0.1
2017-Oct-14 01:30N 36°09' W 005°22'0 0.1
2017-Oct-14 01:00N 36°09' W 005°22'0 0.0
2017-Oct-14 00:30N 36°09' W 005°22'0 0.0
2017-Oct-13 23:57N 36°09' W 005°22'0 0.0
2017-Oct-13 23:24N 36°09' W 005°22'0 0.1
2017-Oct-13 22:57N 36°09' W 005°22'0 0.0
2017-Oct-13 22:30N 36°09' W 005°22'0 0.0
2017-Oct-13 21:48N 36°09' W 005°22'0 0.0
2017-Oct-13 21:30N 36°09' W 005°22'0 0.0
2017-Oct-13 21:00N 36°09' W 005°22'0 0.3
2017-Oct-13 20:25N 36°09' W 005°22'2 3.5
2017-Oct-13 19:51N 36°07' W 005°22'0 0.0
2017-Oct-13 19:27N 36°07' W 005°22'0 0.0
2017-Oct-13 18:51N 36°07' W 005°22'0 0.0
2017-Oct-13 18:24N 36°07' W 005°22'0 0.0
2017-Oct-13 12:21N 36°07' W 005°22'0 0.0
2017-Oct-13 11:57N 36°07' W 005°22'0 0.0
2017-Oct-13 11:21N 36°07' W 005°22'0 0.1
2017-Oct-13 10:56N 36°07' W 005°22'0 0.0
2017-Oct-13 10:07N 36°07' W 005°22'0 0.1
2017-Oct-13 10:00N 36°07' W 005°22'2 0.5
2017-Oct-13 05:30N 36°09' W 005°23'0 0.0
2017-Oct-13 04:57N 36°09' W 005°23'0 0.1
2017-Oct-13 04:27N 36°09' W 005°23'0 0.1
2017-Oct-13 03:09N 36°09' W 005°23'0 0.1
2017-Oct-13 02:42N 36°09' W 005°23'0 0.0
2017-Oct-13 02:30N 36°09' W 005°23'0 0.2
2017-Oct-13 02:00N 36°09' W 005°23'0 0.1
2017-Oct-13 01:18N 36°09' W 005°23'0 0.1
2017-Oct-13 00:54N 36°09' W 005°23'0 0.1
2017-Oct-13 00:30N 36°09' W 005°23'1 2.2
2017-Oct-13 00:00N 36°08' W 005°22'1 1.9
2017-Oct-12 23:29N 36°07' W 005°22'0 0.1
2017-Oct-12 22:56N 36°07' W 005°22'0 0.1
2017-Oct-12 22:29N 36°07' W 005°22'0 0.1
2017-Oct-12 21:59N 36°07' W 005°22'0 0.1
2017-Oct-12 21:29N 36°07' W 005°22'0 0.0
2017-Oct-12 20:59N 36°07' W 005°22'0 0.1
2017-Oct-12 20:29N 36°07' W 005°22'0 0.1
2017-Oct-12 19:59N 36°07' W 005°22'0 0.0
2017-Oct-12 19:29N 36°07' W 005°22'0 0.1
2017-Oct-12 18:59N 36°07' W 005°22'0 0.0
2017-Oct-12 18:29N 36°07' W 005°22'0 0.1
2017-Oct-12 17:56N 36°07' W 005°22'0 0.2
2017-Oct-12 17:29N 36°07' W 005°22'0 0.2
2017-Oct-12 16:59N 36°07' W 005°22'0 0.1
2017-Oct-12 15:44N 36°07' W 005°22'0 0.1
2017-Oct-12 15:29N 36°07' W 005°22'0 0.1
2017-Oct-12 14:47N 36°07' W 005°22'0 0.1
2017-Oct-12 14:30N 36°07' W 005°22'0 0.6
2017-Oct-12 14:00N 36°07' W 005°22'2 4.2
2017-Oct-12 13:30N 36°09' W 005°23'0 0.6
2017-Oct-12 13:00N 36°09' W 005°23'1 1.7
2017-Oct-12 12:25N 36°09' W 005°22'0 0.0
2017-Oct-12 11:55N 36°09' W 005°22'0 0.0
2017-Oct-12 10:52N 36°09' W 005°22'0 0.0
2017-Oct-12 10:19N 36°09' W 005°22'0 0.0
2017-Oct-12 09:58N 36°09' W 005°22'0 0.0
2017-Oct-12 09:13N 36°09' W 005°22'0 0.0
2017-Oct-12 08:40N 36°09' W 005°22'1 0.2
2017-Oct-12 05:42N 36°08' W 005°23'0 0.4
2017-Oct-12 05:06N 36°08' W 005°23'0 0.0
2017-Oct-12 04:39N 36°08' W 005°23'0 0.6
2017-Oct-12 04:30N 36°08' W 005°23'0 0.3
2017-Oct-12 04:00N 36°08' W 005°23'0 0.1
2017-Oct-12 03:30N 36°08' W 005°23'0 0.1
2017-Oct-12 02:57N 36°08' W 005°23'0 0.1
2017-Oct-12 02:06N 36°08' W 005°23'0 0.0
2017-Oct-12 02:00N 36°08' W 005°23'0 0.0
2017-Oct-12 01:30N 36°08' W 005°23'0 0.1
2017-Oct-12 00:54N 36°08' W 005°23'0 0.0
2017-Oct-12 00:00N 36°08' W 005°23'0 0.1
2017-Oct-11 23:21N 36°08' W 005°23'0 0.1
2017-Oct-11 23:00N 36°08' W 005°23'0 0.1
2017-Oct-11 22:30N 36°08' W 005°23'0 0.2
2017-Oct-11 22:00N 36°08' W 005°23'0 0.0
2017-Oct-11 21:12N 36°08' W 005°23'0 0.1
2017-Oct-11 20:54N 36°08' W 005°23'0 0.2
2017-Oct-11 20:30N 36°08' W 005°23'0 0.1
2017-Oct-11 20:00N 36°08' W 005°23'0 0.1
2017-Oct-11 19:30N 36°08' W 005°23'2 0.8
2017-Oct-11 17:26N 36°06' W 005°22'4 0.1
2017-Oct-10 09:59N 36°08' W 005°26'2 3.2
2017-Oct-10 09:17N 36°09' W 005°23'  

Dump ship's entire track history